createdAt,value
2023-05-15T00:02:26.773Z,10.18
2023-05-15T00:05:29.298Z,8.00
2023-05-15T00:08:31.888Z,7.43
2023-05-15T00:11:37.120Z,8.38
2023-05-15T00:14:41.843Z,8.18
2023-05-15T00:17:46.493Z,10.23
2023-05-15T00:20:51.023Z,8.13
2023-05-15T00:23:54.103Z,10.38
2023-05-15T00:26:58.665Z,8.95
2023-05-15T00:30:03.554Z,9.52
2023-05-15T00:33:08.109Z,8.50
2023-05-15T00:36:12.426Z,8.88
2023-05-15T00:39:17.666Z,9.75
2023-05-15T00:42:24.972Z,8.70
2023-05-15T00:45:29.132Z,8.77
2023-05-15T00:48:39.280Z,10.73
2023-05-15T00:51:49.310Z,8.32
2023-05-15T00:54:51.783Z,8.88
2023-05-15T00:57:58.220Z,9.52
2023-05-15T01:01:00.513Z,10.70
2023-05-15T01:04:08.016Z,9.90
2023-05-15T01:07:12.768Z,12.70
2023-05-15T01:10:20.268Z,11.95
2023-05-15T01:13:25.116Z,11.95
2023-05-15T01:16:27.382Z,10.35
2023-05-15T01:19:32.982Z,9.95
2023-05-15T01:22:54.304Z,9.80
2023-05-15T01:26:29.728Z,10.73
2023-05-15T01:30:09.422Z,9.00
2023-05-15T01:33:34.297Z,9.93
2023-05-15T01:36:43.021Z,13.35
2023-05-15T01:39:48.920Z,11.50
2023-05-15T01:42:56.157Z,11.30
2023-05-15T01:45:59.073Z,10.05
2023-05-15T01:49:03.781Z,8.80
2023-05-15T01:52:14.683Z,10.25
2023-05-15T01:55:22.358Z,12.30
2023-05-15T01:58:26.797Z,12.63
2023-05-15T02:01:32.419Z,10.40
2023-05-15T02:04:35.647Z,10.73
2023-05-15T02:07:43.172Z,14.20
2023-05-15T02:10:48.445Z,11.85
2023-05-15T02:13:54.963Z,11.63
2023-05-15T02:16:59.803Z,9.52
2023-05-15T02:20:08.011Z,16.08
2023-05-15T02:23:13.341Z,12.02
2023-05-15T02:26:34.019Z,8.82
2023-05-15T02:29:49.459Z,12.75
2023-05-15T02:33:26.078Z,13.00
2023-05-15T02:36:33.784Z,10.90
2023-05-15T02:39:38.806Z,12.43
2023-05-15T02:45:48.020Z,9.20
2023-05-15T02:48:54.608Z,9.73
2023-05-15T02:51:59.305Z,11.77
2023-05-15T02:55:04.447Z,9.77
2023-05-15T02:58:10.339Z,11.43
2023-05-15T03:01:15.115Z,11.52
2023-05-15T03:04:21.022Z,13.77
2023-05-15T03:07:23.471Z,11.63
2023-05-15T03:10:27.969Z,9.23
2023-05-15T03:13:30.304Z,11.07
2023-05-15T03:16:39.842Z,11.45
2023-05-15T03:19:45.070Z,12.35
2023-05-15T03:22:47.514Z,10.45
2023-05-15T03:25:49.772Z,10.85
2023-05-15T03:28:55.755Z,12.60
2023-05-15T03:31:58.016Z,10.80
2023-05-15T03:35:02.692Z,12.32
2023-05-15T03:38:05.120Z,13.55
2023-05-15T03:41:10.343Z,14.65
2023-05-15T03:44:15.123Z,13.30
2023-05-15T03:47:19.662Z,15.90
2023-05-15T03:50:24.534Z,13.13
2023-05-15T03:53:26.804Z,15.45
2023-05-15T03:56:29.056Z,16.77
2023-05-15T03:59:34.088Z,15.52
2023-05-15T04:02:37.205Z,13.55
2023-05-15T04:05:39.697Z,15.23
2023-05-15T04:08:42.015Z,11.88
2023-05-15T04:11:48.700Z,14.90
2023-05-15T04:14:53.697Z,12.13
2023-05-15T04:18:05.125Z,15.73
2023-05-15T04:21:10.333Z,12.43
2023-05-15T04:24:12.516Z,14.50
2023-05-15T04:27:17.024Z,14.10
2023-05-15T04:30:19.362Z,14.38
2023-05-15T04:33:26.696Z,15.10
2023-05-15T04:36:32.057Z,14.57
2023-05-15T04:39:36.664Z,15.02
2023-05-15T04:42:41.515Z,17.55
2023-05-15T04:45:46.362Z,16.38
2023-05-15T04:48:51.098Z,15.55
2023-05-15T04:51:55.634Z,15.40
2023-05-15T04:54:58.238Z,16.15
2023-05-15T04:58:03.417Z,17.13
2023-05-15T05:01:05.798Z,18.85
2023-05-15T05:04:08.411Z,16.58
2023-05-15T05:07:10.842Z,16.00
2023-05-15T05:10:13.966Z,17.58
2023-05-15T05:13:16.200Z,17.40
2023-05-15T05:16:18.556Z,18.40
2023-05-15T05:19:23.014Z,18.92
2023-05-15T05:22:25.288Z,18.70
2023-05-15T05:25:28.833Z,19.48
2023-05-15T05:28:31.093Z,16.83
2023-05-15T05:31:33.469Z,16.98
2023-05-15T05:34:36.026Z,19.52
2023-05-15T05:37:42.994Z,18.15
2023-05-15T05:40:45.480Z,15.35
2023-05-15T05:43:47.967Z,15.10
2023-05-15T05:46:50.441Z,17.60
2023-05-15T05:49:52.844Z,15.38
2023-05-15T05:52:55.409Z,13.70
2023-05-15T05:56:02.582Z,12.38
2023-05-15T05:59:06.594Z,12.63
2023-05-15T06:02:11.714Z,13.82
2023-05-15T06:05:16.353Z,13.90
2023-05-15T06:08:19.687Z,13.77
2023-05-15T06:11:24.984Z,12.60
2023-05-15T06:14:27.725Z,12.20
2023-05-15T06:17:32.593Z,10.60
2023-05-15T06:20:34.948Z,13.30
2023-05-15T06:23:39.599Z,11.85
2023-05-15T06:26:42.023Z,10.52
2023-05-15T06:29:44.301Z,14.73
2023-05-15T06:32:46.582Z,11.43
2023-05-15T06:35:48.980Z,14.35
2023-05-15T06:38:53.455Z,12.85
2023-05-15T06:41:59.202Z,13.45
2023-05-15T06:45:01.646Z,10.13
2023-05-15T06:48:04.106Z,11.10
2023-05-15T06:51:06.507Z,12.45
2023-05-15T06:54:13.537Z,11.18
2023-05-15T06:57:18.589Z,11.27
2023-05-15T07:00:23.314Z,10.70
2023-05-15T07:03:27.801Z,10.23
2023-05-15T07:06:32.660Z,9.82
2023-05-15T07:09:35.649Z,10.80
2023-05-15T07:12:42.944Z,11.38
2023-05-15T07:15:45.376Z,8.98
2023-05-15T07:18:48.275Z,8.35
2023-05-15T07:21:50.640Z,7.05
2023-05-15T07:24:52.955Z,9.30
2023-05-15T07:27:57.568Z,8.55
2023-05-15T07:31:03.094Z,10.43
2023-05-15T07:34:08.367Z,10.05
2023-05-15T07:37:13.981Z,6.40
2023-05-15T07:40:17.178Z,9.07
2023-05-15T07:43:19.451Z,7.50
2023-05-15T07:46:21.812Z,6.88
2023-05-15T07:49:27.039Z,9.75
2023-05-15T07:52:31.825Z,8.45
2023-05-15T07:55:34.095Z,8.50
2023-05-15T07:58:38.011Z,9.98
2023-05-15T08:01:40.288Z,7.85
2023-05-15T08:04:45.072Z,9.32
2023-05-15T08:07:49.679Z,15.80
2023-05-15T08:10:54.309Z,10.20
2023-05-15T08:13:56.698Z,9.82
2023-05-15T08:16:59.148Z,8.48
2023-05-15T08:20:01.359Z,10.07
2023-05-15T08:23:03.764Z,11.00
2023-05-15T08:26:06.018Z,12.98
2023-05-15T08:29:11.590Z,11.18
2023-05-15T08:32:16.146Z,10.13
2023-05-15T08:35:18.409Z,8.88
2023-05-15T08:38:20.648Z,8.07
2023-05-15T08:41:40.417Z,9.65
2023-05-15T08:44:44.287Z,7.85
2023-05-15T08:47:51.413Z,9.00
2023-05-15T08:50:55.208Z,8.65
2023-05-15T08:53:57.747Z,8.15
2023-05-15T08:57:00.842Z,7.35
2023-05-15T09:00:09.324Z,8.73
2023-05-15T09:03:16.475Z,6.78
2023-05-15T09:06:19.167Z,8.05
2023-05-15T09:09:24.464Z,7.05
2023-05-15T09:12:27.295Z,8.10
2023-05-15T09:15:37.264Z,8.15
2023-05-15T09:18:44.872Z,7.05
2023-05-15T09:21:47.132Z,5.68
2023-05-15T09:24:52.967Z,5.28
2023-05-15T09:27:57.485Z,8.27
2023-05-15T09:31:04.045Z,4.35
2023-05-15T09:34:10.274Z,6.43
2023-05-15T09:37:32.313Z,17.50
2023-05-15T09:40:36.966Z,7.03
2023-05-15T09:43:44.509Z,4.85
2023-05-15T09:46:47.323Z,3.67
2023-05-15T09:52:58.772Z,3.42
2023-05-15T09:56:01.090Z,3.30
2023-05-15T09:59:03.544Z,4.07
2023-05-15T10:02:13.559Z,4.35
2023-05-15T10:05:15.956Z,3.67
2023-05-15T10:08:27.406Z,4.00
2023-05-15T10:11:46.218Z,3.20
2023-05-15T10:14:51.197Z,3.20
2023-05-15T10:17:58.811Z,3.35
2023-05-15T10:21:04.259Z,3.55
2023-05-15T10:24:10.827Z,3.70
2023-05-15T10:27:15.305Z,4.45
2023-05-15T10:30:17.671Z,3.63
2023-05-15T10:33:22.797Z,2.80
2023-05-15T10:36:30.953Z,3.55
2023-05-15T10:39:41.118Z,2.67
2023-05-15T10:42:46.040Z,2.42
2023-05-15T10:45:48.834Z,3.35
2023-05-15T10:48:54.388Z,2.90
2023-05-15T10:52:00.627Z,3.00
2023-05-15T10:55:11.949Z,2.42
2023-05-15T10:58:16.726Z,2.05
2023-05-15T11:01:32.099Z,2.13
2023-05-15T11:04:35.199Z,2.15
2023-05-15T11:07:40.208Z,2.22
2023-05-15T11:10:42.564Z,2.78
2023-05-15T11:14:06.332Z,2.05
2023-05-15T11:17:15.446Z,1.98
2023-05-15T11:20:37.842Z,2.95
2023-05-15T11:23:42.545Z,2.30
2023-05-15T11:26:44.839Z,3.38
2023-05-15T11:30:06.090Z,2.60
2023-05-15T11:33:11.498Z,2.72
2023-05-15T11:36:18.505Z,2.85
2023-05-15T11:39:25.268Z,3.13
2023-05-15T11:42:29.992Z,1.75
2023-05-15T11:45:43.215Z,2.45
2023-05-15T11:48:50.286Z,2.70
2023-05-15T11:51:56.003Z,2.60
2023-05-15T11:55:03.261Z,2.38
2023-05-15T11:58:06.539Z,1.65
2023-05-15T12:01:10.997Z,1.70
2023-05-15T12:04:19.787Z,2.00
2023-05-15T12:07:24.688Z,2.50
2023-05-15T12:10:30.283Z,2.83
2023-05-15T12:13:37.818Z,2.55
2023-05-15T12:16:41.776Z,2.08
2023-05-15T12:19:51.845Z,3.55
2023-05-15T12:22:58.719Z,3.42
2023-05-15T12:26:02.780Z,2.58
2023-05-15T12:29:09.171Z,2.00
2023-05-15T12:32:11.948Z,1.88
2023-05-15T12:35:18.951Z,2.15
2023-05-15T12:38:24.994Z,3.00
2023-05-15T12:41:31.121Z,2.15
2023-05-15T12:44:38.782Z,2.88
2023-05-15T12:47:42.354Z,3.58
2023-05-15T12:50:47.170Z,1.85
2023-05-15T12:53:57.464Z,2.40
2023-05-15T12:57:01.465Z,2.40
2023-05-15T13:00:05.654Z,3.60
2023-05-15T13:03:12.262Z,2.08
2023-05-15T13:06:16.709Z,1.90
2023-05-15T13:09:26.869Z,2.70
2023-05-15T13:12:42.895Z,3.72
2023-05-15T13:15:48.911Z,3.63
2023-05-15T13:23:39.243Z,3.83
2023-05-15T13:26:44.225Z,3.67
2023-05-15T13:39:23.226Z,3.95
2023-05-15T13:42:27.955Z,3.67
2023-05-15T13:45:30.276Z,2.28
2023-05-15T13:48:32.492Z,3.20
2023-05-15T13:51:37.262Z,2.05
2023-05-15T13:54:44.233Z,2.60
2023-05-15T13:57:46.644Z,2.63
2023-05-15T14:00:51.783Z,2.42
2023-05-15T14:03:54.249Z,4.35
2023-05-15T14:06:56.459Z,2.38
2023-05-15T14:10:04.059Z,2.53
2023-05-15T14:13:06.403Z,2.50
2023-05-15T14:16:11.026Z,3.42
2023-05-15T14:19:13.455Z,2.97
2023-05-15T14:22:18.486Z,3.13
2023-05-15T14:25:20.881Z,3.50
2023-05-15T14:28:23.085Z,2.55
2023-05-15T14:31:27.618Z,2.58
2023-05-15T14:34:30.852Z,2.88
2023-05-15T14:37:33.376Z,3.28
2023-05-15T14:40:35.718Z,3.22
2023-05-15T14:43:38.229Z,4.03
2023-05-15T14:46:45.058Z,3.85
2023-05-15T14:49:49.625Z,4.05
2023-05-15T14:52:51.995Z,3.85
2023-05-15T14:56:02.066Z,5.75
2023-05-15T14:59:07.188Z,4.13
2023-05-15T15:02:11.969Z,4.38
2023-05-15T15:05:14.326Z,3.33
2023-05-15T15:08:16.826Z,4.30
2023-05-15T15:11:21.532Z,3.50
2023-05-15T15:14:26.163Z,3.63
2023-05-15T15:17:30.664Z,3.20
2023-05-15T15:20:36.209Z,4.07
2023-05-15T15:23:43.157Z,4.18
2023-05-15T15:26:45.420Z,5.72
2023-05-15T15:29:47.792Z,5.90
2023-05-15T15:32:50.111Z,5.80
2023-05-15T15:35:53.056Z,3.75
2023-05-15T15:38:55.306Z,5.30
2023-05-15T15:41:57.632Z,5.57
2023-05-15T15:45:02.379Z,6.28
2023-05-15T15:48:04.842Z,5.50
2023-05-15T15:51:07.315Z,4.78
2023-05-15T15:54:09.612Z,4.30
2023-05-15T15:57:11.939Z,4.35
2023-05-15T16:00:17.415Z,4.95
2023-05-15T16:03:19.818Z,6.28
2023-05-15T16:06:22.185Z,4.78
2023-05-15T16:09:26.682Z,5.53
2023-05-15T16:12:31.451Z,4.28
2023-05-15T16:15:36.270Z,3.75
2023-05-15T16:18:38.654Z,4.10
2023-05-15T16:21:45.871Z,4.70
2023-05-15T16:24:48.148Z,4.88
2023-05-15T16:27:50.490Z,4.60
2023-05-15T16:30:53.212Z,5.05
2023-05-15T16:34:03.680Z,4.65
2023-05-15T16:37:08.593Z,5.18
2023-05-15T16:40:13.373Z,5.88
2023-05-15T16:43:18.428Z,4.35
2023-05-15T16:46:24.780Z,4.15
2023-05-15T16:49:29.389Z,4.57
2023-05-15T16:52:38.688Z,8.65
2023-05-15T16:55:41.115Z,6.32
2023-05-15T16:58:43.430Z,4.40
2023-05-15T17:01:45.717Z,5.07
2023-05-15T17:04:48.084Z,4.32
2023-05-15T17:07:52.690Z,4.35
2023-05-15T17:10:57.393Z,3.42
2023-05-15T17:13:59.647Z,6.10
2023-05-15T17:17:01.964Z,4.85
2023-05-15T17:20:06.692Z,5.95
2023-05-15T17:23:11.491Z,4.40
2023-05-15T17:26:13.728Z,4.45
2023-05-15T17:29:18.247Z,4.68
2023-05-15T17:32:21.638Z,3.60
2023-05-15T17:35:30.732Z,3.55
2023-05-15T17:38:37.325Z,3.17
2023-05-15T17:41:39.596Z,2.55
2023-05-15T17:44:41.850Z,4.97
2023-05-15T17:47:46.663Z,6.90
2023-05-15T17:50:53.770Z,4.60
2023-05-15T17:53:56.168Z,3.10
2023-05-15T17:56:58.577Z,3.50
2023-05-15T18:00:00.937Z,2.75
2023-05-15T18:03:04.189Z,2.33
2023-05-15T18:06:06.629Z,3.15
2023-05-15T18:09:11.796Z,3.25
2023-05-15T18:12:14.035Z,1.95
2023-05-15T18:15:19.342Z,2.10
2023-05-15T18:18:23.035Z,2.90
2023-05-15T18:21:28.198Z,2.42
2023-05-15T18:24:30.649Z,2.15
2023-05-15T18:27:35.014Z,2.72
2023-05-15T18:30:37.239Z,3.05
2023-05-15T18:33:45.925Z,2.63
2023-05-15T18:36:51.983Z,2.53
2023-05-15T18:39:58.931Z,3.95
2023-05-15T18:43:01.481Z,2.45
2023-05-15T18:46:05.669Z,5.55
2023-05-15T18:49:08.037Z,3.55
2023-05-15T18:52:12.657Z,2.90
2023-05-15T18:55:14.977Z,4.18
2023-05-15T18:58:17.279Z,3.83
2023-05-15T19:01:19.611Z,3.60
2023-05-15T19:04:22.342Z,9.02
2023-05-15T19:07:24.706Z,5.68
2023-05-15T19:10:30.629Z,2.67
2023-05-15T19:13:35.760Z,3.90
2023-05-15T19:16:40.524Z,4.50
2023-05-15T19:19:55.524Z,4.18
2023-05-15T19:22:57.956Z,4.32
2023-05-15T19:26:00.361Z,5.45
2023-05-15T19:29:05.101Z,7.88
2023-05-15T19:32:09.884Z,6.97
2023-05-15T19:35:12.307Z,5.82
2023-05-15T19:38:14.578Z,6.15
2023-05-15T19:41:21.684Z,4.70
2023-05-15T19:44:26.405Z,6.50
2023-05-15T19:47:31.346Z,3.75
2023-05-15T19:50:37.708Z,5.32
2023-05-15T19:53:40.137Z,4.95
2023-05-15T19:56:42.417Z,6.22
2023-05-15T19:59:45.184Z,5.18
2023-05-15T20:02:48.221Z,3.70
2023-05-15T20:05:52.840Z,4.65
2023-05-15T20:08:57.456Z,5.90
2023-05-15T20:12:03.323Z,5.15
2023-05-15T20:15:08.866Z,4.18
2023-05-15T20:18:14.949Z,6.20
2023-05-15T20:21:17.245Z,6.68
2023-05-15T20:24:25.645Z,9.30
2023-05-15T20:27:30.602Z,3.67
2023-05-15T20:30:33.072Z,6.30
2023-05-15T20:33:35.384Z,4.38
2023-05-15T20:36:40.047Z,4.20
2023-05-15T20:39:45.450Z,6.28
2023-05-15T20:42:50.480Z,3.45
2023-05-15T20:45:52.971Z,7.68
2023-05-15T20:48:58.025Z,5.68
2023-05-15T20:52:00.864Z,4.90
2023-05-15T20:55:13.541Z,4.32
2023-05-15T20:58:18.808Z,3.65
2023-05-15T21:01:23.311Z,5.18
2023-05-15T21:04:28.367Z,4.15
2023-05-15T21:07:33.825Z,3.88
2023-05-15T21:10:36.084Z,3.58
2023-05-15T21:13:38.437Z,4.18
2023-05-15T21:16:41.159Z,4.30
2023-05-15T21:19:44.336Z,5.10
2023-05-15T21:22:49.222Z,3.20
2023-05-15T21:25:53.837Z,7.38
2023-05-15T21:29:03.981Z,5.43
2023-05-15T21:32:09.297Z,5.45
2023-05-15T21:35:14.326Z,7.70
2023-05-15T21:38:19.402Z,4.55
2023-05-15T21:41:22.101Z,3.95
2023-05-15T21:44:29.167Z,3.22
2023-05-15T21:47:33.957Z,3.80
2023-05-15T21:50:38.535Z,3.72
2023-05-15T21:53:45.822Z,3.25
2023-05-15T21:56:53.634Z,3.53
2023-05-15T21:59:58.432Z,6.15
2023-05-15T22:03:02.951Z,3.95
2023-05-15T22:06:07.618Z,3.28
2023-05-15T22:09:10.061Z,4.60
2023-05-15T22:15:17.780Z,4.90
2023-05-15T22:18:20.035Z,5.05
2023-05-15T22:21:22.313Z,3.45
2023-05-15T22:24:27.298Z,3.08
2023-05-15T22:27:29.578Z,3.83
2023-05-15T22:30:35.550Z,5.00
2023-05-15T22:33:40.442Z,4.45
2023-05-15T22:36:44.979Z,5.82
2023-05-15T22:39:47.832Z,4.65
2023-05-15T22:42:50.299Z,5.32
2023-05-15T22:45:52.715Z,6.15
2023-05-15T22:49:00.523Z,6.32
2023-05-15T22:52:07.000Z,4.47
2023-05-15T22:55:12.904Z,5.57
2023-05-15T22:58:15.171Z,6.80
2023-05-15T23:01:17.450Z,6.15
2023-05-15T23:04:22.132Z,8.30
2023-05-15T23:07:26.972Z,6.30
2023-05-15T23:10:31.691Z,6.63
2023-05-15T23:13:36.141Z,8.32
2023-05-15T23:16:40.898Z,8.65
2023-05-15T23:19:45.472Z,5.97
2023-05-15T23:22:47.837Z,5.95
2023-05-15T23:25:50.152Z,10.38
2023-05-15T23:28:52.404Z,6.32
2023-05-15T23:31:56.940Z,6.25
2023-05-15T23:35:01.500Z,6.30
2023-05-15T23:38:06.116Z,7.40
2023-05-15T23:41:08.667Z,6.00
2023-05-15T23:44:18.918Z,7.60
2023-05-15T23:47:21.594Z,5.90
2023-05-15T23:50:24.193Z,6.75
2023-05-15T23:53:28.838Z,7.40
2023-05-15T23:56:31.183Z,6.32
2023-05-15T23:59:36.278Z,5.90
